createdAt,value
2017-12-02T00:00:12.162Z,3.70
2017-12-02T00:02:40.227Z,3.46
2017-12-02T00:05:08.572Z,3.90
2017-12-02T00:07:37.203Z,3.57
2017-12-02T00:10:05.556Z,3.72
2017-12-02T00:12:33.895Z,3.87
2017-12-02T00:15:02.259Z,3.83
2017-12-02T00:17:30.607Z,3.85
2017-12-02T00:19:59.003Z,3.94
2017-12-02T00:22:27.346Z,4.27
2017-12-02T00:24:55.690Z,3.73
2017-12-02T00:27:24.046Z,3.87
2017-12-02T00:29:52.398Z,3.59
2017-12-02T00:32:20.769Z,3.84
2017-12-02T00:34:49.110Z,4.16
2017-12-02T00:37:17.471Z,4.07
2017-12-02T00:39:45.817Z,3.75
2017-12-02T00:42:14.190Z,3.47
2017-12-02T00:44:42.538Z,3.77
2017-12-02T00:47:10.887Z,4.21
2017-12-02T00:49:39.240Z,4.29
2017-12-02T00:52:07.620Z,3.91
2017-12-02T00:54:35.967Z,4.27
2017-12-02T00:57:04.323Z,4.19
2017-12-02T00:59:32.673Z,4.13
2017-12-02T01:02:01.026Z,3.99
2017-12-02T01:04:29.400Z,4.26
2017-12-02T01:06:57.750Z,4.47
2017-12-02T01:09:26.103Z,4.21
2017-12-02T01:11:54.462Z,4.34
2017-12-02T01:14:22.805Z,4.36
2017-12-02T01:16:51.180Z,4.07
2017-12-02T01:19:19.523Z,4.10
2017-12-02T01:21:47.878Z,4.14
2017-12-02T01:24:16.223Z,3.90
2017-12-02T01:26:44.569Z,4.24
2017-12-02T01:29:12.948Z,4.08
2017-12-02T01:31:41.286Z,3.92
2017-12-02T01:34:09.642Z,3.90
2017-12-02T01:36:37.981Z,3.92
2017-12-02T01:39:06.323Z,3.75
2017-12-02T01:41:34.707Z,4.04
2017-12-02T01:44:03.095Z,4.11
2017-12-02T01:46:31.442Z,4.16
2017-12-02T01:48:59.822Z,4.20
2017-12-02T01:51:28.187Z,4.43
2017-12-02T01:53:56.539Z,4.50
2017-12-02T01:56:24.892Z,4.74
2017-12-02T01:58:53.238Z,4.48
2017-12-02T02:01:21.623Z,4.32
2017-12-02T02:03:49.962Z,4.27
2017-12-02T02:06:18.312Z,4.11
2017-12-02T02:08:46.655Z,4.02
2017-12-02T02:11:14.994Z,3.97
2017-12-02T02:13:43.546Z,3.81
2017-12-02T02:16:11.894Z,3.81
2017-12-02T02:18:40.235Z,3.88
2017-12-02T02:21:08.585Z,4.03
2017-12-02T02:23:36.930Z,4.32
2017-12-02T02:26:05.301Z,4.33
2017-12-02T02:28:33.651Z,4.26
2017-12-02T02:31:01.995Z,4.24
2017-12-02T02:33:30.339Z,4.41
2017-12-02T02:35:58.687Z,4.57
2017-12-02T02:38:27.398Z,4.46
2017-12-02T02:40:56.172Z,4.15
2017-12-02T02:43:24.896Z,4.43
2017-12-02T02:45:53.532Z,4.32
2017-12-02T02:48:22.158Z,4.23
2017-12-02T02:50:51.103Z,4.23
2017-12-02T02:53:22.427Z,4.35
2017-12-02T02:55:51.415Z,4.59
2017-12-02T02:58:20.667Z,4.76
2017-12-02T03:00:49.324Z,4.82
2017-12-02T03:03:17.849Z,4.71
2017-12-02T03:05:46.215Z,4.70
2017-12-02T03:08:14.690Z,4.83
2017-12-02T03:10:43.031Z,5.02
2017-12-02T03:13:11.383Z,4.61
2017-12-02T03:15:39.731Z,4.90
2017-12-02T03:18:08.085Z,4.71
2017-12-02T03:20:36.559Z,4.48
2017-12-02T03:23:04.908Z,4.43
2017-12-02T03:25:33.255Z,4.36
2017-12-02T03:28:01.604Z,4.23
2017-12-02T03:30:29.947Z,4.24
2017-12-02T03:32:58.326Z,4.32
2017-12-02T03:35:26.679Z,4.16
2017-12-02T03:37:55.022Z,4.15
2017-12-02T03:40:23.367Z,4.26
2017-12-02T03:42:51.743Z,3.95
2017-12-02T03:45:20.103Z,4.03
2017-12-02T03:47:48.447Z,3.81
2017-12-02T03:50:16.799Z,4.28
2017-12-02T03:52:45.142Z,3.80
2017-12-02T03:55:13.692Z,4.27
2017-12-02T03:57:42.044Z,3.57
2017-12-02T04:00:30.773Z,3.94
2017-12-02T04:02:59.130Z,4.02
2017-12-02T04:05:27.510Z,4.24
2017-12-02T04:07:55.858Z,4.09
2017-12-02T04:10:24.206Z,3.94
2017-12-02T04:12:52.555Z,3.66
2017-12-02T04:15:20.910Z,3.52
2017-12-02T04:17:49.322Z,3.94
2017-12-02T04:20:17.673Z,4.06
2017-12-02T04:22:46.018Z,3.50
2017-12-02T04:25:14.370Z,3.14
2017-12-02T04:27:42.715Z,3.62
2017-12-02T04:30:11.073Z,3.66
2017-12-02T04:32:39.419Z,3.79
2017-12-02T04:35:07.950Z,4.14
2017-12-02T04:37:36.298Z,4.06
2017-12-02T04:40:04.647Z,3.93
2017-12-02T04:42:32.992Z,4.22
2017-12-02T04:45:01.344Z,4.36
2017-12-02T04:47:29.717Z,4.38
2017-12-02T04:49:58.071Z,4.15
2017-12-02T04:52:26.414Z,3.92
2017-12-02T04:54:54.763Z,3.74
2017-12-02T04:57:23.117Z,3.55
2017-12-02T04:59:51.545Z,3.74
2017-12-02T05:02:19.866Z,3.51
2017-12-02T05:04:48.210Z,3.76
2017-12-02T05:07:16.564Z,4.15
2017-12-02T05:09:44.908Z,4.00
2017-12-02T05:12:13.251Z,4.23
2017-12-02T05:14:41.636Z,4.41
2017-12-02T05:17:09.976Z,4.06
2017-12-02T05:19:38.333Z,3.29
2017-12-02T05:22:06.685Z,3.58
2017-12-02T05:24:35.032Z,3.56
2017-12-02T05:27:03.422Z,3.93
2017-12-02T05:29:31.777Z,4.06
2017-12-02T05:32:00.114Z,3.97
2017-12-02T05:34:28.467Z,4.19
2017-12-02T05:36:56.810Z,4.03
2017-12-02T05:39:25.300Z,4.22
2017-12-02T05:41:53.646Z,4.48
2017-12-02T05:44:21.990Z,4.36
2017-12-02T05:46:50.348Z,4.48
2017-12-02T05:49:18.691Z,4.18
2017-12-02T05:51:47.078Z,4.02
2017-12-02T05:54:15.427Z,3.94
2017-12-02T05:56:43.773Z,3.87
2017-12-02T05:59:12.109Z,3.77
2017-12-02T06:01:40.469Z,4.04
2017-12-02T06:04:08.844Z,4.08
2017-12-02T06:06:37.182Z,3.85
2017-12-02T06:09:05.531Z,3.95
2017-12-02T06:11:33.883Z,4.31
2017-12-02T06:14:02.226Z,4.15
2017-12-02T06:16:30.624Z,4.45
2017-12-02T06:18:58.982Z,4.37
2017-12-02T06:21:27.326Z,4.33
2017-12-02T06:23:55.671Z,4.38
2017-12-02T06:26:24.028Z,4.40
2017-12-02T06:28:52.462Z,4.63
2017-12-02T06:31:20.807Z,4.58
2017-12-02T06:33:49.159Z,4.57
2017-12-02T06:36:17.531Z,4.53
2017-12-02T06:38:45.874Z,4.43
2017-12-02T06:41:14.355Z,4.48
2017-12-02T06:43:42.702Z,4.37
2017-12-02T06:46:11.051Z,4.47
2017-12-02T06:48:39.396Z,4.28
2017-12-02T06:51:07.745Z,4.00
2017-12-02T06:53:36.120Z,4.24
2017-12-02T06:56:04.472Z,4.50
2017-12-02T06:58:32.822Z,4.35
2017-12-02T07:01:01.176Z,4.16
2017-12-02T07:03:29.531Z,3.99
2017-12-02T07:05:57.914Z,3.89
2017-12-02T07:08:26.259Z,3.78
2017-12-02T07:10:54.616Z,4.24
2017-12-02T07:13:22.991Z,4.24
2017-12-02T07:15:51.339Z,4.12
2017-12-02T07:18:19.693Z,4.22
2017-12-02T07:20:48.034Z,4.17
2017-12-02T07:23:16.395Z,4.16
2017-12-02T07:25:44.881Z,3.87
2017-12-02T07:28:13.236Z,3.81
2017-12-02T07:30:41.577Z,3.99
2017-12-02T07:33:09.922Z,3.99
2017-12-02T07:35:38.287Z,3.95
2017-12-02T07:38:06.666Z,3.70
2017-12-02T07:40:35.017Z,3.87
2017-12-02T07:43:03.366Z,3.94
2017-12-02T07:45:31.713Z,4.32
2017-12-02T07:48:00.062Z,4.25
2017-12-02T07:50:28.455Z,4.33
2017-12-02T07:52:56.800Z,4.44
2017-12-02T07:55:25.175Z,4.30
2017-12-02T07:57:53.528Z,4.52
2017-12-02T08:00:21.888Z,4.46
2017-12-02T08:02:50.279Z,4.51
2017-12-02T08:05:18.637Z,4.29
2017-12-02T08:07:46.981Z,4.52
2017-12-02T08:10:15.324Z,4.44
2017-12-02T08:12:43.672Z,4.68
2017-12-02T08:15:12.042Z,4.64
2017-12-02T08:17:40.387Z,4.49
2017-12-02T08:20:09.434Z,4.82
2017-12-02T08:22:37.795Z,5.10
2017-12-02T08:25:06.151Z,5.15
2017-12-02T08:27:34.532Z,5.01
2017-12-02T08:30:02.879Z,4.79
2017-12-02T08:32:31.223Z,4.71
2017-12-02T08:34:59.583Z,5.27
2017-12-02T08:37:27.936Z,5.19
2017-12-02T08:39:56.316Z,5.21
2017-12-02T08:42:24.663Z,4.82
2017-12-02T08:44:53.013Z,4.77
2017-12-02T08:47:21.357Z,4.82
2017-12-02T08:49:49.706Z,4.73
2017-12-02T08:52:18.092Z,4.78
2017-12-02T08:54:46.486Z,4.57
2017-12-02T08:57:14.835Z,4.53
2017-12-02T08:59:43.184Z,4.93
2017-12-02T09:02:11.527Z,5.24
2017-12-02T09:04:39.912Z,5.76
2017-12-02T09:07:08.262Z,5.81
2017-12-02T09:09:36.634Z,5.92
2017-12-02T09:12:04.977Z,6.01
2017-12-02T09:14:33.327Z,6.31
2017-12-02T09:17:01.686Z,6.99
2017-12-02T09:19:30.071Z,7.60
2017-12-02T09:21:58.433Z,7.90
2017-12-02T09:24:26.789Z,8.70
2017-12-02T09:26:55.176Z,9.74
2017-12-02T09:29:23.532Z,10.40
2017-12-02T09:31:51.897Z,9.85
2017-12-02T09:34:20.237Z,8.94
2017-12-02T09:36:48.574Z,9.17
2017-12-02T09:39:16.916Z,8.38
2017-12-02T09:41:45.260Z,7.21
2017-12-02T09:44:13.602Z,6.38
2017-12-02T09:46:41.950Z,6.02
2017-12-02T09:49:10.314Z,5.90
2017-12-02T09:51:38.650Z,6.02
2017-12-02T09:54:07.755Z,5.80
2017-12-02T09:56:36.113Z,5.72
2017-12-02T09:59:04.463Z,5.96
2017-12-02T10:01:32.819Z,6.07
2017-12-02T10:04:01.184Z,5.81
2017-12-02T10:06:29.530Z,5.60
2017-12-02T10:08:57.883Z,5.41
2017-12-02T10:11:26.247Z,5.46
2017-12-02T10:13:54.603Z,5.53
2017-12-02T10:16:22.966Z,5.50
2017-12-02T10:18:51.314Z,5.81
2017-12-02T10:21:19.687Z,5.92
2017-12-02T10:23:48.047Z,6.68
2017-12-02T10:26:16.399Z,6.48
2017-12-02T10:28:44.752Z,6.22
2017-12-02T10:31:13.104Z,5.75
2017-12-02T10:33:41.454Z,5.51
2017-12-02T10:36:09.807Z,5.51
2017-12-02T10:38:38.154Z,5.80
2017-12-02T10:41:06.522Z,6.09
2017-12-02T10:43:34.890Z,6.70
2017-12-02T10:46:03.248Z,6.12
2017-12-02T10:48:31.636Z,5.74
2017-12-02T10:50:59.996Z,6.00
2017-12-02T10:53:28.367Z,6.38
2017-12-02T10:55:56.753Z,6.50
2017-12-02T10:58:25.103Z,6.62
2017-12-02T11:00:53.458Z,6.57
2017-12-02T11:03:21.839Z,6.45
2017-12-02T11:05:50.186Z,6.56
2017-12-02T11:08:18.539Z,5.49
2017-12-02T11:10:46.919Z,5.45
2017-12-02T11:13:15.274Z,5.73
2017-12-02T11:15:43.628Z,5.82
2017-12-02T11:18:12.009Z,5.54
2017-12-02T11:20:40.361Z,5.72
2017-12-02T11:23:08.711Z,5.14
2017-12-02T11:25:37.106Z,4.66
2017-12-02T11:28:05.466Z,4.97
2017-12-02T11:30:33.829Z,5.16
2017-12-02T11:33:02.212Z,5.52
2017-12-02T11:35:30.554Z,5.62
2017-12-02T11:37:59.108Z,6.23
2017-12-02T11:40:27.541Z,6.54
2017-12-02T11:42:55.888Z,6.47
2017-12-02T11:45:24.232Z,6.07
2017-12-02T11:47:52.580Z,6.10
2017-12-02T11:50:20.930Z,6.38
2017-12-02T11:55:23.879Z,6.36
2017-12-02T11:57:52.235Z,6.44
2017-12-02T12:00:20.580Z,6.91
2017-12-02T12:02:48.928Z,7.67
2017-12-02T12:05:17.280Z,7.74
2017-12-02T12:07:45.623Z,8.40
2017-12-02T12:10:13.967Z,8.62
2017-12-02T12:12:42.302Z,7.56
2017-12-02T12:15:10.656Z,7.46
2017-12-02T12:17:39.000Z,7.59
2017-12-02T12:20:07.346Z,7.68
2017-12-02T12:22:35.695Z,7.46
2017-12-02T12:25:04.035Z,7.18
2017-12-02T12:27:32.377Z,6.65
2017-12-02T12:30:00.724Z,6.44
2017-12-02T12:32:29.074Z,6.27
2017-12-02T12:34:57.439Z,6.20
2017-12-02T12:37:25.796Z,6.14
2017-12-02T12:39:54.154Z,6.29
2017-12-02T12:42:22.515Z,5.93
2017-12-02T12:44:50.878Z,6.06
2017-12-02T12:47:19.233Z,6.10
2017-12-02T12:49:47.576Z,6.21
2017-12-02T12:52:15.919Z,6.63
2017-12-02T12:54:44.267Z,6.55
2017-12-02T12:57:12.744Z,6.73
2017-12-02T12:59:41.099Z,7.27
2017-12-02T13:02:09.454Z,8.06
2017-12-02T13:04:37.819Z,8.02
2017-12-02T13:07:06.186Z,7.34
2017-12-02T13:09:34.542Z,7.24
2017-12-02T13:12:02.914Z,6.75
2017-12-02T13:14:31.316Z,6.12
2017-12-02T13:16:59.647Z,6.03
